sensor_id;sensor_type;location;lat;lon;timestamp;pressure;altitude;pressure_sealevel;temperature;humidity
45939;BME280;31650;48.818;9.116;2023-07-20T00:06:17;97782.88;;;18.29;61.49
45939;BME280;31650;48.818;9.116;2023-07-20T00:21:17;97789.19;;;17.99;59.63
45939;BME280;31650;48.818;9.116;2023-07-20T00:36:17;97786.88;;;17.65;60.81
45939;BME280;31650;48.818;9.116;2023-07-20T00:51:18;97790.53;;;17.18;62.35
45939;BME280;31650;48.818;9.116;2023-07-20T01:37:01;97795.34;;;16.53;66.74
45939;BME280;31650;48.818;9.116;2023-07-20T01:52:01;97795.00;;;16.12;69.90
45939;BME280;31650;48.818;9.116;2023-07-20T02:07:01;97798.22;;;15.77;74.02
45939;BME280;31650;48.818;9.116;2023-07-20T02:22:02;97812.22;;;15.37;79.89
45939;BME280;31650;48.818;9.116;2023-07-20T02:37:02;97805.81;;;15.26;83.14
45939;BME280;31650;48.818;9.116;2023-07-20T02:52:02;97812.56;;;15.18;84.03
45939;BME280;31650;48.818;9.116;2023-07-20T03:07:06;97825.25;;;14.85;89.84
45939;BME280;31650;48.818;9.116;2023-07-20T03:22:07;97827.09;;;14.63;95.56
45939;BME280;31650;48.818;9.116;2023-07-20T03:37:07;97842.97;;;14.32;100.00
45939;BME280;31650;48.818;9.116;2023-07-20T03:52:08;97840.00;;;14.34;100.00
45939;BME280;31650;48.818;9.116;2023-07-20T04:07:08;97849.00;;;14.17;100.00
45939;BME280;31650;48.818;9.116;2023-07-20T04:22:08;97858.19;;;14.57;100.00
45939;BME280;31650;48.818;9.116;2023-07-20T04:37:09;97854.94;;;14.94;100.00
45939;BME280;31650;48.818;9.116;2023-07-20T04:52:09;97849.88;;;15.46;94.40
45939;BME280;31650;48.818;9.116;2023-07-20T05:07:09;97854.75;;;16.10;89.37
45939;BME280;31650;48.818;9.116;2023-07-20T05:22:09;97845.06;;;16.94;83.54
45939;BME280;31650;48.818;9.116;2023-07-20T05:37:11;97840.50;;;17.68;74.59
45939;BME280;31650;48.818;9.116;2023-07-20T05:52:11;97824.97;;;18.20;72.88
45939;BME280;31650;48.818;9.116;2023-07-20T06:07:11;97832.84;;;19.44;67.12
45939;BME280;31650;48.818;9.116;2023-07-20T06:22:12;97833.25;;;20.27;63.58
45939;BME280;31650;48.818;9.116;2023-07-20T06:37:12;97833.78;;;20.68;62.72
45939;BME280;31650;48.818;9.116;2023-07-20T06:52:12;97832.41;;;21.29;60.89
45939;BME280;31650;48.818;9.116;2023-07-20T07:07:15;97825.91;;;21.87;58.18
45939;BME280;31650;48.818;9.116;2023-07-20T07:22:15;97824.56;;;22.03;57.14
45939;BME280;31650;48.818;9.116;2023-07-20T07:37:15;97819.03;;;22.03;55.02
45939;BME280;31650;48.818;9.116;2023-07-20T07:52:17;97801.44;;;23.58;51.46
45939;BME280;31650;48.818;9.116;2023-07-20T08:07:17;97814.09;;;24.96;48.09
45939;BME280;31650;48.818;9.116;2023-07-20T08:22:18;97820.16;;;22.40;53.43
45939;BME280;31650;48.818;9.116;2023-07-20T08:37:18;97810.44;;;24.41;47.94
45939;BME280;31650;48.818;9.116;2023-07-20T08:52:18;97801.72;;;25.11;47.44
45939;BME280;31650;48.818;9.116;2023-07-20T09:07:18;97796.84;;;24.85;44.59
45939;BME280;31650;48.818;9.116;2023-07-20T09:22:20;97806.59;;;22.58;50.01
45939;BME280;31650;48.818;9.116;2023-07-20T09:37:23;97795.34;;;25.41;44.42
45939;BME280;31650;48.818;9.116;2023-07-20T09:52:23;97791.09;;;25.92;40.15
45939;BME280;31650;48.818;9.116;2023-07-20T10:07:24;97779.88;;;25.75;37.52
45939;BME280;31650;48.818;9.116;2023-07-20T10:22:27;97769.97;;;26.61;37.52
45939;BME280;31650;48.818;9.116;2023-07-20T10:37:46;97749.25;;;25.75;37.68
45939;BME280;31650;48.818;9.116;2023-07-20T10:53:23;97748.25;;;25.54;37.46
45939;BME280;31650;48.818;9.116;2023-07-20T11:08:37;97740.13;;;27.26;34.15
45939;BME280;31650;48.818;9.116;2023-07-20T11:23:37;97734.75;;;27.72;33.92
45939;BME280;31650;48.818;9.116;2023-07-20T11:38:39;97719.44;;;29.69;31.49
45939;BME280;31650;48.818;9.116;2023-07-20T11:53:40;97708.75;;;27.80;31.83
45939;BME280;31650;48.818;9.116;2023-07-20T12:08:41;97703.84;;;28.19;30.98
45939;BME280;31650;48.818;9.116;2023-07-20T12:23:42;97691.63;;;29.02;32.17
45939;BME280;31650;48.818;9.116;2023-07-20T12:38:42;97678.66;;;28.07;32.16
45939;BME280;31650;48.818;9.116;2023-07-20T12:53:44;97655.50;;;27.85;31.14
45939;BME280;31650;48.818;9.116;2023-07-20T13:08:44;97640.97;;;27.92;30.09
45939;BME280;31650;48.818;9.116;2023-07-20T13:23:44;97628.34;;;28.40;29.87
45939;BME280;31650;48.818;9.116;2023-07-20T13:38:45;97636.59;;;27.82;30.24
45939;BME280;31650;48.818;9.116;2023-07-20T13:53:46;97616.09;;;28.32;29.79
45939;BME280;31650;48.818;9.116;2023-07-20T14:08:46;97602.63;;;28.01;29.53
45939;BME280;31650;48.818;9.116;2023-07-20T14:23:48;97583.53;;;29.22;28.92
45939;BME280;31650;48.818;9.116;2023-07-20T14:38:48;97581.00;;;28.10;28.79
45939;BME280;31650;48.818;9.116;2023-07-20T14:53:49;97564.47;;;28.17;28.25
45939;BME280;31650;48.818;9.116;2023-07-20T15:08:49;97577.38;;;27.34;29.00
45939;BME280;31650;48.818;9.116;2023-07-20T15:23:49;97557.50;;;26.85;30.20
45939;BME280;31650;48.818;9.116;2023-07-20T15:38:50;97535.88;;;27.33;30.22
45939;BME280;31650;48.818;9.116;2023-07-20T15:53:50;97525.69;;;27.07;30.37
45939;BME280;31650;48.818;9.116;2023-07-20T16:08:50;97510.09;;;26.17;31.87
45939;BME280;31650;48.818;9.116;2023-07-20T16:23:51;97511.47;;;25.85;30.51
45939;BME280;31650;48.818;9.116;2023-07-20T16:38:51;97512.34;;;25.59;31.92
45939;BME280;31650;48.818;9.116;2023-07-20T16:53:52;97501.03;;;25.03;32.85
45939;BME280;31650;48.818;9.116;2023-07-20T17:08:52;97499.56;;;24.80;32.84
45939;BME280;31650;48.818;9.116;2023-07-20T17:23:52;97496.91;;;24.66;32.53
45939;BME280;31650;48.818;9.116;2023-07-20T17:38:52;97510.47;;;23.88;33.82
45939;BME280;31650;48.818;9.116;2023-07-20T17:53:53;97514.78;;;23.49;34.57
45939;BME280;31650;48.818;9.116;2023-07-20T18:08:53;97507.31;;;23.13;35.25
45939;BME280;31650;48.818;9.116;2023-07-20T18:23:53;97501.34;;;22.69;36.04
45939;BME280;31650;48.818;9.116;2023-07-20T18:38:53;97502.31;;;22.37;37.14
45939;BME280;31650;48.818;9.116;2023-07-20T18:54:13;97504.72;;;21.97;38.37
45939;BME280;31650;48.818;9.116;2023-07-20T19:09:13;97499.56;;;21.63;39.34
45939;BME280;31650;48.818;9.116;2023-07-20T19:24:14;97509.38;;;21.36;41.24
45939;BME280;31650;48.818;9.116;2023-07-20T19:39:14;97519.47;;;20.70;45.13
45939;BME280;31650;48.818;9.116;2023-07-20T19:54:14;97535.91;;;20.08;48.98
45939;BME280;31650;48.818;9.116;2023-07-20T20:09:15;97531.28;;;19.79;49.43
45939;BME280;31650;48.818;9.116;2023-07-20T20:24:16;97527.41;;;19.46;50.19
45939;BME280;31650;48.818;9.116;2023-07-20T20:39:16;97522.25;;;19.00;52.00
45939;BME280;31650;48.818;9.116;2023-07-20T20:54:16;97527.75;;;18.45;54.29
45939;BME280;31650;48.818;9.116;2023-07-20T21:09:17;97518.47;;;18.26;53.87
45939;BME280;31650;48.818;9.116;2023-07-20T21:24:17;97523.81;;;17.97;55.51
45939;BME280;31650;48.818;9.116;2023-07-20T21:39:17;97511.72;;;17.62;55.82
45939;BME280;31650;48.818;9.116;2023-07-20T21:54:17;97506.25;;;17.06;58.56
45939;BME280;31650;48.818;9.116;2023-07-20T22:09:18;97516.03;;;16.66;60.64
45939;BME280;31650;48.818;9.116;2023-07-20T22:24:18;97521.06;;;16.16;64.24
45939;BME280;31650;48.818;9.116;2023-07-20T22:39:18;97525.66;;;15.95;62.99
45939;BME280;31650;48.818;9.116;2023-07-20T22:54:19;97528.38;;;15.95;62.18
45939;BME280;31650;48.818;9.116;2023-07-20T23:09:19;97524.03;;;16.04;62.88
45939;BME280;31650;48.818;9.116;2023-07-20T23:24:20;97512.13;;;15.78;66.82
45939;BME280;31650;48.818;9.116;2023-07-20T23:39:20;97487.03;;;15.59;69.32
45939;BME280;31650;48.818;9.116;2023-07-20T23:54:20;97483.94;;;15.50;71.15
